Aeroporto :
LOGIN :

Iscrizione | Disclaimer

   EN    FR    IT 

 










Sommario :    VFR   VFR Marginale   IFR   IFR Intensivo   IFR Molto Intensivo
Visibilità : 
Base nubi : 
>= 8 km
>= 3000ft
5 / 8 km
1000 / 3000 ft
1500m / 5 km
500 / 1000 ft
800 / 1500m
200 / 500 ft
< 800m
< 200 ft
Simboli :   Temporali  Nebbia  Neve Forte  Precipitazioni Forti  Vento > 20 kt
SIGMETs :   Varie  Temporali  Ghiacco  Turbolenza  Onda orograficha  Ceneri Vulcaniche






- Altitudine del aeroporto : 353 ft
- Codice IATA : LIN


LIML - Milano Linate

ULTIMO METAR :
  • 210020Z VRB02KT CAVOK 04/M00 Q1023 NOSIG

METARs OBSOLETI :
  • 202350Z VRB01KT CAVOK 03/M01 Q1024 NOSIG
  • 202320Z 35003KT CAVOK 02/M01 Q1024 NOSIG
  • 202250Z VRB01KT CAVOK 04/00 Q1023 NOSIG
  • 202220Z 34001KT CAVOK 04/00 Q1023 NOSIG

TAF TAF LIML
Valido dal 21 a 00 ore il 22 a 00 ore UTC


202300Z 2100/2124 VRB05KT CAVOK
PROB30
TEMPO 2102/2106 3000 BR



MetMap, La meteo Aeronautica in un colpo d'occhio ! - Copyright ORBIFLY Dicembre 2007 - Disclaimer

ORBIFLY MET'MAP TEAM :

Programmazione e sviluppo : Alexandra Zaïnal
Concezione : Baudouin d'Aumeries
Aiuto per la programmazione : Marc-Olivier Méhu
Supporto tecnico e logistico : Manuel Goepfert
Aiuto per la traduzione : Arnaldo La Scala

Contatto : metmap@orbifly.com




FONTI E CREDITI :

   NOAA